Huade, China
Current Conditions -  °F | °C
As of 1:00 PM on Friday 31 Oct 2014 (Local Time) from ZBHH Reporting Station
Broken Clouds Broken Clouds  
Wind Chill: 43°   Ceiling: 4000
Heat Index: 43°   Visibility: 6mi
Dew Point: 37°   Wind: 2mph
Humidity: 81%   Direction: 290°WNW
Pressure: 30.09"   Gusts: NA
Location:  41.9°N, 114°E
Report Text: ZBHH 310500Z 29001MPS 9999 SCT030 BKN040 06/03 Q1019 NOSIG
Loading
Personal Weather Stations






























Interactive Weather Map
Tropical Storm Tracking
New forecast layout! Learn more

10-Day Weather Forecast

Advertisements
Track Severe Weather on mobile